This is the latest recevied weather packets stored in our database for station/object N5PA. If no packets are shown the sender has not sent any weather packets the latest 1 day(s).
| Time | Temp. | Humidity | Pressure | Rain* | Wind** | Luminosity | Snow |
|---|---|---|---|---|---|---|---|
| 1778082007 | 22.78° C | 29% | 1014.4 hPa | 0 mm | - | 993 W/m² | - |
| 1778078706 | 22.22° C | 38% | 1014.6 hPa | 0.25 mm | - | 993 W/m² | - |
| 1778073907 | 22.22° C | 47% | 1014.1 hPa | 0 mm | - | 997 W/m² | - |
| 1778072705 | 21.67° C | 46% | 1014 hPa | 0 mm | - | 995 W/m² | - |
| 1778072107 | 21.67° C | 45% | 1013.9 hPa | 0 mm | - | 997 W/m² | - |
| 1778071206 | 21.67° C | 44% | 1013.8 hPa | 0 mm | - | 997 W/m² | - |
| 1778070906 | 21.67° C | 42% | 1013.7 hPa | 0 mm | - | 997 W/m² | - |
| 1778070605 | 21.67° C | 42% | 1013.6 hPa | 0 mm | - | 997 W/m² | - |
| 1778069707 | 21.11° C | 40% | 1013 hPa | 0 mm | - | 998 W/m² | - |
| 1778066706 | 21.11° C | 42% | 1012.6 hPa | 0 mm | - | 998 W/m² | - |
| 1778066107 | 21.11° C | 43% | 1012.6 hPa | 0 mm | - | 997 W/m² | - |
| 1778065506 | 21.11° C | 44% | 1012.3 hPa | 0 mm | - | 997 W/m² | - |
| 1778063705 | 21.11° C | 47% | 1012.3 hPa | 0 mm | - | 997 W/m² | - |
| 1778062805 | 21.11° C | 49% | 1012.4 hPa | 0 mm | - | 997 W/m² | - |
| 1778062506 | 21.11° C | 50% | 1012.3 hPa | 0 mm | - | 998 W/m² | - |
| 1778061905 | 21.11° C | 51% | 1012.3 hPa | 0 mm | - | 998 W/m² | - |
| 1778059206 | 21.11° C | 56% | 1012 hPa | 0 mm | - | 997 W/m² | - |
| 1778058606 | 21.11° C | 55% | 1011.9 hPa | 0 mm | - | 997 W/m² | - |
| 1778058006 | 21.11° C | 54% | 1011.8 hPa | 0 mm | - | 997 W/m² | - |
| 1778057406 | 21.11° C | 53% | 1011.6 hPa | 0 mm | - | 998 W/m² | - |
| 1778056805 | 21.11° C | 53% | 1011.5 hPa | 0 mm | - | 998 W/m² | - |
| 1778056505 | 21.11° C | 54% | 1011.6 hPa | 0 mm | - | 997 W/m² | - |
| 1778055006 | 21.11° C | 54% | 1011.6 hPa | 0 mm | - | 998 W/m² | - |
| 1778054705 | 21.11° C | 54% | 1011.8 hPa | 0 mm | - | 995 W/m² | - |
| 1778053205 | 21.11° C | 54% | 1011.5 hPa | 0 mm | - | 995 W/m² | - |
* Rain latest hour (hover to see other rain measurements)
** Current wind speed in m/s (hover to see current wind gust speed)